Terminal Aerodrome Forecast
Issued by NWS Duluth, MN

Home | Current Version | Previous Version | Text Only | Print | Product List | Glossary On
Versions: 1 2 3 4 5 6 7 8 9 10 11 12 13 14 15 16 17 18 19 20 21 22 23 24 25
385
FTUS43 KDLH 302018 AAD
TAFDLH
TAF AMD
KDLH 302018Z 3020/0118 36005KT P6SM -RA FEW010 BKN060 OVC080
     FM010900 35010KT P6SM -SN OVC009
     FM011300 34011KT P6SM VCSH OVC015=

USA.gov is the U.S. government's official web portal to all federal, state and local government web resources and services.